sensor_id;sensor_type;location;lat;lon;timestamp;temperature;humidity
10873;DHT22;34586;53.616;10.032;2022-12-20T00:00:42;8.20;45.30
10873;DHT22;34586;53.616;10.032;2022-12-20T00:03:08;8.10;45.10
10873;DHT22;34586;53.616;10.032;2022-12-20T00:05:38;8.10;57.50
10873;DHT22;34586;53.616;10.032;2022-12-20T00:08:03;8.10;69.10
10873;DHT22;34586;53.616;10.032;2022-12-20T00:10:29;8.20;66.70
10873;DHT22;34586;53.616;10.032;2022-12-20T00:12:55;8.30;46.10
10873;DHT22;34586;53.616;10.032;2022-12-20T00:15:20;8.30;45.80
10873;DHT22;34586;53.616;10.032;2022-12-20T00:17:46;8.40;43.60
10873;DHT22;34586;53.616;10.032;2022-12-20T00:20:12;8.50;27.40
10873;DHT22;34586;53.616;10.032;2022-12-20T00:22:37;8.50;31.40
10873;DHT22;34586;53.616;10.032;2022-12-20T00:25:04;8.60;16.00
10873;DHT22;34586;53.616;10.032;2022-12-20T00:27:29;8.60;11.30
10873;DHT22;34586;53.616;10.032;2022-12-20T00:29:55;8.60;10.10
10873;DHT22;34586;53.616;10.032;2022-12-20T00:32:21;8.60;13.30
10873;DHT22;34586;53.616;10.032;2022-12-20T00:34:46;8.70;10.10
10873;DHT22;34586;53.616;10.032;2022-12-20T00:37:12;8.60;12.30
10873;DHT22;34586;53.616;10.032;2022-12-20T00:39:38;8.60;10.30
10873;DHT22;34586;53.616;10.032;2022-12-20T00:42:03;8.60;9.40
10873;DHT22;34586;53.616;10.032;2022-12-20T00:44:29;8.60;4.00
10873;DHT22;34586;53.616;10.032;2022-12-20T00:46:54;8.60;15.20
10873;DHT22;34586;53.616;10.032;2022-12-20T00:49:20;8.60;11.50
10873;DHT22;34586;53.616;10.032;2022-12-20T00:51:46;8.60;13.10
10873;DHT22;34586;53.616;10.032;2022-12-20T00:54:11;8.70;1.00
10873;DHT22;34586;53.616;10.032;2022-12-20T00:56:37;8.70;1.00
10873;DHT22;34586;53.616;10.032;2022-12-20T00:59:02;8.70;1.00
10873;DHT22;34586;53.616;10.032;2022-12-20T01:01:31;8.70;1.00
10873;DHT22;34586;53.616;10.032;2022-12-20T01:03:57;8.50;1.00
10873;DHT22;34586;53.616;10.032;2022-12-20T01:06:24;8.60;13.40
10873;DHT22;34586;53.616;10.032;2022-12-20T01:08:51;8.60;21.60
10873;DHT22;34586;53.616;10.032;2022-12-20T01:11:26;8.50;28.10
10873;DHT22;34586;53.616;10.032;2022-12-20T01:13:57;8.40;43.80
10873;DHT22;34586;53.616;10.032;2022-12-20T01:16:25;8.40;41.90
10873;DHT22;34586;53.616;10.032;2022-12-20T01:18:51;8.50;46.70
10873;DHT22;34586;53.616;10.032;2022-12-20T01:21:18;8.40;56.10
10873;DHT22;34586;53.616;10.032;2022-12-20T01:23:45;8.40;58.00
10873;DHT22;34586;53.616;10.032;2022-12-20T01:26:15;8.40;58.60
10873;DHT22;34586;53.616;10.032;2022-12-20T01:28:42;8.40;71.10
10873;DHT22;34586;53.616;10.032;2022-12-20T01:31:10;8.50;67.80
10873;DHT22;34586;53.616;10.032;2022-12-20T01:33:36;8.60;45.00
10873;DHT22;34586;53.616;10.032;2022-12-20T01:36:05;8.60;59.70
10873;DHT22;34586;53.616;10.032;2022-12-20T01:38:31;8.60;48.50
10873;DHT22;34586;53.616;10.032;2022-12-20T01:40:57;8.70;44.90
10873;DHT22;34586;53.616;10.032;2022-12-20T01:43:24;8.60;50.70
10873;DHT22;34586;53.616;10.032;2022-12-20T01:45:50;8.60;45.90
10873;DHT22;34586;53.616;10.032;2022-12-20T01:48:23;8.60;55.70
10873;DHT22;34586;53.616;10.032;2022-12-20T01:50:51;8.70;59.70
10873;DHT22;34586;53.616;10.032;2022-12-20T01:53:20;8.80;49.20
10873;DHT22;34586;53.616;10.032;2022-12-20T01:55:46;8.80;47.30
10873;DHT22;34586;53.616;10.032;2022-12-20T01:58:13;8.80;46.20
10873;DHT22;34586;53.616;10.032;2022-12-20T02:00:40;8.90;52.00
10873;DHT22;34586;53.616;10.032;2022-12-20T02:03:10;8.90;38.40
10873;DHT22;34586;53.616;10.032;2022-12-20T02:05:40;8.90;34.30
10873;DHT22;34586;53.616;10.032;2022-12-20T02:08:07;9.00;30.00
10873;DHT22;34586;53.616;10.032;2022-12-20T02:13:14;8.90;48.80
10873;DHT22;34586;53.616;10.032;2022-12-20T02:15:54;9.00;34.60
10873;DHT22;34586;53.616;10.032;2022-12-20T02:21:32;9.10;37.40
10873;DHT22;34586;53.616;10.032;2022-12-20T02:27:08;9.20;39.90
10873;DHT22;34586;53.616;10.032;2022-12-20T02:30:07;9.20;23.90
10873;DHT22;34586;53.616;10.032;2022-12-20T02:35:06;9.20;43.20
10873;DHT22;34586;53.616;10.032;2022-12-20T02:37:32;9.10;51.30
10873;DHT22;34586;53.616;10.032;2022-12-20T02:39:57;9.10;56.20
10873;DHT22;34586;53.616;10.032;2022-12-20T02:42:25;9.20;62.50
10873;DHT22;34586;53.616;10.032;2022-12-20T02:45:04;9.20;66.40
10873;DHT22;34586;53.616;10.032;2022-12-20T02:47:54;9.30;72.00
10873;DHT22;34586;53.616;10.032;2022-12-20T02:50:35;9.30;55.20
10873;DHT22;34586;53.616;10.032;2022-12-20T02:53:03;9.30;53.10
10873;DHT22;34586;53.616;10.032;2022-12-20T02:56:00;9.30;48.70
10873;DHT22;34586;53.616;10.032;2022-12-20T02:58:35;9.30;59.40
10873;DHT22;34586;53.616;10.032;2022-12-20T03:01:07;9.40;55.80
10873;DHT22;34586;53.616;10.032;2022-12-20T03:03:34;9.40;67.90
10873;DHT22;34586;53.616;10.032;2022-12-20T03:06:00;9.40;81.50
10873;DHT22;34586;53.616;10.032;2022-12-20T03:08:26;9.50;65.00
10873;DHT22;34586;53.616;10.032;2022-12-20T03:10:53;9.50;62.30
10873;DHT22;34586;53.616;10.032;2022-12-20T03:13:20;9.50;69.20
10873;DHT22;34586;53.616;10.032;2022-12-20T03:15:45;9.50;72.50
10873;DHT22;34586;53.616;10.032;2022-12-20T03:18:11;9.50;66.00
10873;DHT22;34586;53.616;10.032;2022-12-20T03:20:37;9.50;61.40
10873;DHT22;34586;53.616;10.032;2022-12-20T03:23:02;9.50;68.30
10873;DHT22;34586;53.616;10.032;2022-12-20T03:25:28;9.70;76.70
10873;DHT22;34586;53.616;10.032;2022-12-20T03:27:54;9.60;52.30
10873;DHT22;34586;53.616;10.032;2022-12-20T03:30:19;9.80;63.20
10873;DHT22;34586;53.616;10.032;2022-12-20T03:32:45;9.80;46.30
10873;DHT22;34586;53.616;10.032;2022-12-20T03:35:10;9.70;59.40
10873;DHT22;34586;53.616;10.032;2022-12-20T03:37:36;9.80;54.00
10873;DHT22;34586;53.616;10.032;2022-12-20T03:40:02;9.70;65.80
10873;DHT22;34586;53.616;10.032;2022-12-20T03:42:28;9.70;72.70
10873;DHT22;34586;53.616;10.032;2022-12-20T03:44:54;9.80;59.50
10873;DHT22;34586;53.616;10.032;2022-12-20T03:47:19;9.80;57.10
10873;DHT22;34586;53.616;10.032;2022-12-20T03:49:45;9.80;54.80
10873;DHT22;34586;53.616;10.032;2022-12-20T03:52:12;9.80;55.50
10873;DHT22;34586;53.616;10.032;2022-12-20T03:54:38;9.80;54.00
10873;DHT22;34586;53.616;10.032;2022-12-20T03:57:03;9.90;45.60
10873;DHT22;34586;53.616;10.032;2022-12-20T03:59:29;9.80;42.10
10873;DHT22;34586;53.616;10.032;2022-12-20T04:01:55;9.90;42.60
10873;DHT22;34586;53.616;10.032;2022-12-20T04:04:21;9.90;34.80
10873;DHT22;34586;53.616;10.032;2022-12-20T04:06:46;9.90;32.10
10873;DHT22;34586;53.616;10.032;2022-12-20T04:09:13;10.00;39.90
10873;DHT22;34586;53.616;10.032;2022-12-20T04:11:38;9.90;37.40
10873;DHT22;34586;53.616;10.032;2022-12-20T04:14:04;9.90;32.20
10873;DHT22;34586;53.616;10.032;2022-12-20T04:16:31;10.00;21.40
10873;DHT22;34586;53.616;10.032;2022-12-20T04:18:57;10.00;10.70
10873;DHT22;34586;53.616;10.032;2022-12-20T04:21:31;10.00;24.30
10873;DHT22;34586;53.616;10.032;2022-12-20T04:23:58;10.00;8.50
10873;DHT22;34586;53.616;10.032;2022-12-20T04:26:24;10.00;14.40
10873;DHT22;34586;53.616;10.032;2022-12-20T04:28:50;9.90;26.30
10873;DHT22;34586;53.616;10.032;2022-12-20T04:31:15;10.00;14.80
10873;DHT22;34586;53.616;10.032;2022-12-20T04:33:41;10.00;15.00
10873;DHT22;34586;53.616;10.032;2022-12-20T04:36:07;10.00;4.10
10873;DHT22;34586;53.616;10.032;2022-12-20T04:38:33;10.00;5.70
10873;DHT22;34586;53.616;10.032;2022-12-20T04:40:59;10.10;8.90
10873;DHT22;34586;53.616;10.032;2022-12-20T04:43:25;10.00;1.00
10873;DHT22;34586;53.616;10.032;2022-12-20T04:45:52;10.10;1.00
10873;DHT22;34586;53.616;10.032;2022-12-20T04:48:19;10.10;1.00
10873;DHT22;34586;53.616;10.032;2022-12-20T04:50:49;10.20;1.00
10873;DHT22;34586;53.616;10.032;2022-12-20T04:53:15;10.00;1.00
10873;DHT22;34586;53.616;10.032;2022-12-20T04:55:59;10.10;1.00
10873;DHT22;34586;53.616;10.032;2022-12-20T04:58:25;10.10;1.00
10873;DHT22;34586;53.616;10.032;2022-12-20T05:00:51;10.10;5.40
10873;DHT22;34586;53.616;10.032;2022-12-20T05:03:18;10.00;35.90
10873;DHT22;34586;53.616;10.032;2022-12-20T05:05:43;10.00;74.90
10873;DHT22;34586;53.616;10.032;2022-12-20T05:08:09;10.00;77.00
10873;DHT22;34586;53.616;10.032;2022-12-20T05:10:35;10.00;94.50
10873;DHT22;34586;53.616;10.032;2022-12-20T05:13:01;9.80;99.90
10873;DHT22;34586;53.616;10.032;2022-12-20T05:15:26;9.90;99.90
10873;DHT22;34586;53.616;10.032;2022-12-20T05:17:52;9.90;99.90
10873;DHT22;34586;53.616;10.032;2022-12-20T05:20:27;9.90;99.90
10873;DHT22;34586;53.616;10.032;2022-12-20T05:22:53;9.90;99.90
10873;DHT22;34586;53.616;10.032;2022-12-20T05:25:45;9.90;99.90
10873;DHT22;34586;53.616;10.032;2022-12-20T05:28:30;9.80;99.90
10873;DHT22;34586;53.616;10.032;2022-12-20T05:30:56;9.80;99.90
10873;DHT22;34586;53.616;10.032;2022-12-20T05:33:21;9.90;99.90
10873;DHT22;34586;53.616;10.032;2022-12-20T05:35:47;9.80;99.90
10873;DHT22;34586;53.616;10.032;2022-12-20T05:38:13;9.80;99.90
10873;DHT22;34586;53.616;10.032;2022-12-20T05:40:39;9.70;99.90
10873;DHT22;34586;53.616;10.032;2022-12-20T05:43:05;9.70;99.90
10873;DHT22;34586;53.616;10.032;2022-12-20T05:45:31;9.70;99.90
10873;DHT22;34586;53.616;10.032;2022-12-20T05:47:57;9.80;99.90
10873;DHT22;34586;53.616;10.032;2022-12-20T05:50:23;9.70;99.90
10873;DHT22;34586;53.616;10.032;2022-12-20T05:52:48;9.60;99.90
10873;DHT22;34586;53.616;10.032;2022-12-20T05:55:14;9.70;99.90
10873;DHT22;34586;53.616;10.032;2022-12-20T05:57:40;9.70;99.90
10873;DHT22;34586;53.616;10.032;2022-12-20T06:00:06;9.70;99.90
10873;DHT22;34586;53.616;10.032;2022-12-20T06:02:32;9.80;99.90
10873;DHT22;34586;53.616;10.032;2022-12-20T06:04:58;9.70;99.90
10873;DHT22;34586;53.616;10.032;2022-12-20T06:07:24;9.80;99.90
10873;DHT22;34586;53.616;10.032;2022-12-20T06:09:50;9.70;99.90
10873;DHT22;34586;53.616;10.032;2022-12-20T06:12:16;9.60;99.90
10873;DHT22;34586;53.616;10.032;2022-12-20T06:14:41;9.60;99.90
10873;DHT22;34586;53.616;10.032;2022-12-20T06:17:07;9.50;99.90
10873;DHT22;34586;53.616;10.032;2022-12-20T06:19:33;9.50;99.90
10873;DHT22;34586;53.616;10.032;2022-12-20T06:21:58;9.50;99.90
10873;DHT22;34586;53.616;10.032;2022-12-20T06:24:25;9.50;99.90
10873;DHT22;34586;53.616;10.032;2022-12-20T06:26:51;9.50;99.90
10873;DHT22;34586;53.616;10.032;2022-12-20T06:29:17;9.50;99.90
10873;DHT22;34586;53.616;10.032;2022-12-20T06:31:45;9.50;99.90
10873;DHT22;34586;53.616;10.032;2022-12-20T06:34:11;9.50;99.90
10873;DHT22;34586;53.616;10.032;2022-12-20T06:36:37;9.60;99.90
10873;DHT22;34586;53.616;10.032;2022-12-20T06:39:02;9.60;99.90
10873;DHT22;34586;53.616;10.032;2022-12-20T06:41:28;9.60;99.90
10873;DHT22;34586;53.616;10.032;2022-12-20T06:43:53;9.70;99.90
10873;DHT22;34586;53.616;10.032;2022-12-20T06:46:19;9.60;99.90
10873;DHT22;34586;53.616;10.032;2022-12-20T06:48:44;9.60;99.90
10873;DHT22;34586;53.616;10.032;2022-12-20T06:51:10;9.80;99.90
10873;DHT22;34586;53.616;10.032;2022-12-20T06:53:36;9.70;99.90
10873;DHT22;34586;53.616;10.032;2022-12-20T06:56:01;9.70;99.90
10873;DHT22;34586;53.616;10.032;2022-12-20T06:58:27;9.60;99.90
10873;DHT22;34586;53.616;10.032;2022-12-20T07:00:53;9.60;99.90
10873;DHT22;34586;53.616;10.032;2022-12-20T07:03:19;9.70;99.90
10873;DHT22;34586;53.616;10.032;2022-12-20T07:05:50;9.80;99.90
10873;DHT22;34586;53.616;10.032;2022-12-20T07:08:17;9.70;99.90
10873;DHT22;34586;53.616;10.032;2022-12-20T07:10:43;9.70;99.90
10873;DHT22;34586;53.616;10.032;2022-12-20T07:13:09;9.70;99.90
10873;DHT22;34586;53.616;10.032;2022-12-20T07:15:35;9.70;99.90
10873;DHT22;34586;53.616;10.032;2022-12-20T07:18:00;9.80;99.90
10873;DHT22;34586;53.616;10.032;2022-12-20T07:20:26;9.70;99.90
10873;DHT22;34586;53.616;10.032;2022-12-20T07:22:52;9.70;99.90
10873;DHT22;34586;53.616;10.032;2022-12-20T07:25:17;9.70;99.90
10873;DHT22;34586;53.616;10.032;2022-12-20T07:27:46;9.70;99.90
10873;DHT22;34586;53.616;10.032;2022-12-20T07:30:14;9.80;99.90
10873;DHT22;34586;53.616;10.032;2022-12-20T07:32:40;9.70;99.90
10873;DHT22;34586;53.616;10.032;2022-12-20T07:35:06;9.70;99.90
10873;DHT22;34586;53.616;10.032;2022-12-20T07:37:31;9.70;99.90
10873;DHT22;34586;53.616;10.032;2022-12-20T07:39:57;9.70;99.90
10873;DHT22;34586;53.616;10.032;2022-12-20T07:42:23;9.70;99.90
10873;DHT22;34586;53.616;10.032;2022-12-20T07:44:48;9.70;99.90
10873;DHT22;34586;53.616;10.032;2022-12-20T07:47:14;9.70;99.90
10873;DHT22;34586;53.616;10.032;2022-12-20T07:49:39;9.70;99.90
10873;DHT22;34586;53.616;10.032;2022-12-20T07:52:06;9.70;99.90
10873;DHT22;34586;53.616;10.032;2022-12-20T07:54:35;9.60;99.90
10873;DHT22;34586;53.616;10.032;2022-12-20T07:57:08;9.70;99.90
10873;DHT22;34586;53.616;10.032;2022-12-20T07:59:39;9.60;99.90
10873;DHT22;34586;53.616;10.032;2022-12-20T08:02:09;9.70;99.90
10873;DHT22;34586;53.616;10.032;2022-12-20T08:04:37;9.80;99.90
10873;DHT22;34586;53.616;10.032;2022-12-20T08:07:03;9.80;99.90
10873;DHT22;34586;53.616;10.032;2022-12-20T08:09:31;9.70;99.90
10873;DHT22;34586;53.616;10.032;2022-12-20T08:11:58;9.70;99.90
10873;DHT22;34586;53.616;10.032;2022-12-20T08:14:24;9.70;99.90
10873;DHT22;34586;53.616;10.032;2022-12-20T08:16:50;9.60;99.90
10873;DHT22;34586;53.616;10.032;2022-12-20T08:19:16;9.50;99.90
10873;DHT22;34586;53.616;10.032;2022-12-20T08:21:41;9.60;99.90
10873;DHT22;34586;53.616;10.032;2022-12-20T08:24:07;9.60;99.90
10873;DHT22;34586;53.616;10.032;2022-12-20T08:26:37;9.50;99.90
10873;DHT22;34586;53.616;10.032;2022-12-20T08:29:03;9.60;99.90
10873;DHT22;34586;53.616;10.032;2022-12-20T08:31:28;9.50;99.90
10873;DHT22;34586;53.616;10.032;2022-12-20T08:33:54;9.50;99.90
10873;DHT22;34586;53.616;10.032;2022-12-20T08:36:20;9.60;99.90
10873;DHT22;34586;53.616;10.032;2022-12-20T08:38:45;9.60;99.90
10873;DHT22;34586;53.616;10.032;2022-12-20T08:41:12;9.60;99.90
10873;DHT22;34586;53.616;10.032;2022-12-20T08:43:39;9.70;99.90
10873;DHT22;34586;53.616;10.032;2022-12-20T08:46:05;9.70;99.90
10873;DHT22;34586;53.616;10.032;2022-12-20T08:48:31;9.70;99.90
10873;DHT22;34586;53.616;10.032;2022-12-20T08:51:03;9.70;99.90
10873;DHT22;34586;53.616;10.032;2022-12-20T08:53:29;9.80;99.90
10873;DHT22;34586;53.616;10.032;2022-12-20T08:56:10;9.90;99.90
10873;DHT22;34586;53.616;10.032;2022-12-20T08:58:37;9.80;99.90
10873;DHT22;34586;53.616;10.032;2022-12-20T09:01:05;9.80;99.90
10873;DHT22;34586;53.616;10.032;2022-12-20T09:03:32;9.90;99.90
10873;DHT22;34586;53.616;10.032;2022-12-20T09:05:58;9.90;99.90
10873;DHT22;34586;53.616;10.032;2022-12-20T09:08:24;10.00;99.90
10873;DHT22;34586;53.616;10.032;2022-12-20T09:10:51;10.00;99.90
10873;DHT22;34586;53.616;10.032;2022-12-20T09:13:17;10.00;99.90
10873;DHT22;34586;53.616;10.032;2022-12-20T09:15:42;10.10;99.90
10873;DHT22;34586;53.616;10.032;2022-12-20T09:18:09;10.10;99.90
10873;DHT22;34586;53.616;10.032;2022-12-20T09:20:35;10.20;99.90
10873;DHT22;34586;53.616;10.032;2022-12-20T09:23:00;10.30;99.90
10873;DHT22;34586;53.616;10.032;2022-12-20T09:25:27;10.40;99.90
10873;DHT22;34586;53.616;10.032;2022-12-20T09:27:53;10.40;99.90
10873;DHT22;34586;53.616;10.032;2022-12-20T09:30:21;10.60;99.90
10873;DHT22;34586;53.616;10.032;2022-12-20T09:32:47;10.60;99.90
10873;DHT22;34586;53.616;10.032;2022-12-20T09:35:12;10.70;99.90
10873;DHT22;34586;53.616;10.032;2022-12-20T09:37:38;10.60;99.90
10873;DHT22;34586;53.616;10.032;2022-12-20T09:40:04;10.80;99.90
10873;DHT22;34586;53.616;10.032;2022-12-20T09:42:30;10.80;99.90
10873;DHT22;34586;53.616;10.032;2022-12-20T09:45:04;10.90;89.10
10873;DHT22;34586;53.616;10.032;2022-12-20T09:47:32;10.80;90.70
10873;DHT22;34586;53.616;10.032;2022-12-20T09:49:58;10.90;93.60
10873;DHT22;34586;53.616;10.032;2022-12-20T09:55:16;11.10;63.90
10873;DHT22;34586;53.616;10.032;2022-12-20T10:00:19;11.00;77.10
10873;DHT22;34586;53.616;10.032;2022-12-20T10:02:45;11.00;73.60
10873;DHT22;34586;53.616;10.032;2022-12-20T10:05:19;10.90;63.00
10873;DHT22;34586;53.616;10.032;2022-12-20T10:08:01;11.00;81.10
10873;DHT22;34586;53.616;10.032;2022-12-20T10:10:40;10.90;90.50
10873;DHT22;34586;53.616;10.032;2022-12-20T10:16:40;10.90;99.90
10873;DHT22;34586;53.616;10.032;2022-12-20T10:19:23;10.80;99.90
10873;DHT22;34586;53.616;10.032;2022-12-20T10:22:15;10.80;99.90
10873;DHT22;34586;53.616;10.032;2022-12-20T10:24:50;10.70;99.90
10873;DHT22;34586;53.616;10.032;2022-12-20T10:27:19;10.70;99.90
10873;DHT22;34586;53.616;10.032;2022-12-20T10:29:46;10.80;99.90
10873;DHT22;34586;53.616;10.032;2022-12-20T10:32:16;10.80;99.90
10873;DHT22;34586;53.616;10.032;2022-12-20T10:37:34;10.80;99.90
10873;DHT22;34586;53.616;10.032;2022-12-20T10:40:00;10.90;99.90
10873;DHT22;34586;53.616;10.032;2022-12-20T10:44:57;10.90;99.90
10873;DHT22;34586;53.616;10.032;2022-12-20T10:47:43;11.00;99.90
10873;DHT22;34586;53.616;10.032;2022-12-20T10:50:18;11.20;99.90
10873;DHT22;34586;53.616;10.032;2022-12-20T10:52:45;11.30;99.90
10873;DHT22;34586;53.616;10.032;2022-12-20T10:55:36;11.30;99.90
10873;DHT22;34586;53.616;10.032;2022-12-20T10:58:29;11.30;87.60
10873;DHT22;34586;53.616;10.032;2022-12-20T11:01:18;11.30;47.00
10873;DHT22;34586;53.616;10.032;2022-12-20T11:06:27;11.30;33.50
10873;DHT22;34586;53.616;10.032;2022-12-20T11:12:14;11.30;7.00
10873;DHT22;34586;53.616;10.032;2022-12-20T11:14:42;11.30;19.80
10873;DHT22;34586;53.616;10.032;2022-12-20T11:37:08;11.50;1.00
10873;DHT22;34586;53.616;10.032;2022-12-20T11:39:50;11.50;1.00
10873;DHT22;34586;53.616;10.032;2022-12-20T11:42:39;11.50;1.00
10873;DHT22;34586;53.616;10.032;2022-12-20T11:48:18;11.40;1.00
10873;DHT22;34586;53.616;10.032;2022-12-20T11:53:31;11.30;1.00
10873;DHT22;34586;53.616;10.032;2022-12-20T11:56:03;11.30;1.00
10873;DHT22;34586;53.616;10.032;2022-12-20T11:58:56;11.30;1.00
10873;DHT22;34586;53.616;10.032;2022-12-20T12:01:37;11.30;1.00
10873;DHT22;34586;53.616;10.032;2022-12-20T12:04:15;11.30;1.00
10873;DHT22;34586;53.616;10.032;2022-12-20T12:06:57;11.30;1.00
10873;DHT22;34586;53.616;10.032;2022-12-20T12:09:37;11.30;1.00
10873;DHT22;34586;53.616;10.032;2022-12-20T12:12:27;11.40;1.00
10873;DHT22;34586;53.616;10.032;2022-12-20T12:15:27;11.30;1.00
10873;DHT22;34586;53.616;10.032;2022-12-20T12:20:44;11.30;1.00
10873;DHT22;34586;53.616;10.032;2022-12-20T12:25:44;11.50;1.00
10873;DHT22;34586;53.616;10.032;2022-12-20T12:28:11;11.50;1.00
10873;DHT22;34586;53.616;10.032;2022-12-20T12:30:48;11.50;1.00
10873;DHT22;34586;53.616;10.032;2022-12-20T12:33:31;11.40;1.00
10873;DHT22;34586;53.616;10.032;2022-12-20T12:47:07;11.20;4.60
10873;DHT22;34586;53.616;10.032;2022-12-20T12:49:36;11.10;29.20
10873;DHT22;34586;53.616;10.032;2022-12-20T12:52:04;11.10;73.90
10873;DHT22;34586;53.616;10.032;2022-12-20T12:54:36;11.00;98.20
10873;DHT22;34586;53.616;10.032;2022-12-20T12:57:21;11.10;99.90
10873;DHT22;34586;53.616;10.032;2022-12-20T12:59:49;11.00;99.90
10873;DHT22;34586;53.616;10.032;2022-12-20T13:09:59;10.90;99.90
10873;DHT22;34586;53.616;10.032;2022-12-20T13:18:22;10.80;99.90
10873;DHT22;34586;53.616;10.032;2022-12-20T13:21:16;10.80;99.90
10873;DHT22;34586;53.616;10.032;2022-12-20T13:23:43;10.80;99.90
10873;DHT22;34586;53.616;10.032;2022-12-20T13:29:33;10.60;99.90
10873;DHT22;34586;53.616;10.032;2022-12-20T13:32:00;10.60;99.90
10873;DHT22;34586;53.616;10.032;2022-12-20T13:34:55;10.60;99.90
10873;DHT22;34586;53.616;10.032;2022-12-20T13:37:54;10.60;99.90
10873;DHT22;34586;53.616;10.032;2022-12-20T13:40:30;10.50;99.90
10873;DHT22;34586;53.616;10.032;2022-12-20T13:43:08;10.50;99.90
10873;DHT22;34586;53.616;10.032;2022-12-20T13:45:35;10.50;99.90
10873;DHT22;34586;53.616;10.032;2022-12-20T13:48:05;10.50;99.90
10873;DHT22;34586;53.616;10.032;2022-12-20T13:50:37;10.50;99.90
10873;DHT22;34586;53.616;10.032;2022-12-20T13:53:05;10.40;99.90
10873;DHT22;34586;53.616;10.032;2022-12-20T13:55:37;10.40;99.90
10873;DHT22;34586;53.616;10.032;2022-12-20T13:58:20;10.40;99.90
10873;DHT22;34586;53.616;10.032;2022-12-20T14:00:48;10.40;99.90
10873;DHT22;34586;53.616;10.032;2022-12-20T14:03:27;10.30;99.90
10873;DHT22;34586;53.616;10.032;2022-12-20T14:05:59;10.30;99.90
10873;DHT22;34586;53.616;10.032;2022-12-20T14:08:29;10.30;99.90
10873;DHT22;34586;53.616;10.032;2022-12-20T14:11:10;10.40;99.90
10873;DHT22;34586;53.616;10.032;2022-12-20T14:13:36;10.30;99.90
10873;DHT22;34586;53.616;10.032;2022-12-20T14:16:16;10.30;99.90
10873;DHT22;34586;53.616;10.032;2022-12-20T14:18:47;10.30;99.90
10873;DHT22;34586;53.616;10.032;2022-12-20T14:21:13;10.30;99.90
10873;DHT22;34586;53.616;10.032;2022-12-20T14:23:44;10.30;99.90
10873;DHT22;34586;53.616;10.032;2022-12-20T14:26:13;10.30;99.90
10873;DHT22;34586;53.616;10.032;2022-12-20T14:28:42;10.30;99.90
10873;DHT22;34586;53.616;10.032;2022-12-20T14:31:28;10.30;99.90
10873;DHT22;34586;53.616;10.032;2022-12-20T14:36:44;10.30;99.90
10873;DHT22;34586;53.616;10.032;2022-12-20T14:39:28;10.20;99.90
10873;DHT22;34586;53.616;10.032;2022-12-20T14:41:58;10.20;99.90
10873;DHT22;34586;53.616;10.032;2022-12-20T14:44:27;10.20;99.90
10873;DHT22;34586;53.616;10.032;2022-12-20T14:46:58;10.10;99.90
10873;DHT22;34586;53.616;10.032;2022-12-20T14:49:30;10.10;99.90
10873;DHT22;34586;53.616;10.032;2022-12-20T14:52:14;10.20;99.90
10873;DHT22;34586;53.616;10.032;2022-12-20T15:02:57;10.10;99.90
10873;DHT22;34586;53.616;10.032;2022-12-20T15:08:29;10.20;99.90
10873;DHT22;34586;53.616;10.032;2022-12-20T15:13:45;10.10;99.90
10873;DHT22;34586;53.616;10.032;2022-12-20T15:16:12;10.00;99.90
10873;DHT22;34586;53.616;10.032;2022-12-20T15:18:38;10.10;99.90
10873;DHT22;34586;53.616;10.032;2022-12-20T15:23:52;10.10;99.90
10873;DHT22;34586;53.616;10.032;2022-12-20T15:26:23;10.20;99.90
10873;DHT22;34586;53.616;10.032;2022-12-20T15:28:50;10.00;99.90
10873;DHT22;34586;53.616;10.032;2022-12-20T15:31:18;10.00;99.90
10873;DHT22;34586;53.616;10.032;2022-12-20T15:33:45;9.90;99.90
10873;DHT22;34586;53.616;10.032;2022-12-20T15:36:16;10.00;99.90
10873;DHT22;34586;53.616;10.032;2022-12-20T15:38:42;9.90;99.90
10873;DHT22;34586;53.616;10.032;2022-12-20T15:41:16;9.90;99.90
10873;DHT22;34586;53.616;10.032;2022-12-20T15:43:43;9.90;99.90
10873;DHT22;34586;53.616;10.032;2022-12-20T15:46:09;9.80;99.90
10873;DHT22;34586;53.616;10.032;2022-12-20T15:48:35;9.90;99.90
10873;DHT22;34586;53.616;10.032;2022-12-20T15:51:00;9.90;99.90
10873;DHT22;34586;53.616;10.032;2022-12-20T15:53:31;9.90;99.90
10873;DHT22;34586;53.616;10.032;2022-12-20T15:55:58;9.90;99.90
10873;DHT22;34586;53.616;10.032;2022-12-20T15:58:25;10.00;99.90
10873;DHT22;34586;53.616;10.032;2022-12-20T16:00:58;10.00;99.90
10873;DHT22;34586;53.616;10.032;2022-12-20T16:03:29;10.00;99.90
10873;DHT22;34586;53.616;10.032;2022-12-20T16:05:56;10.10;99.90
10873;DHT22;34586;53.616;10.032;2022-12-20T16:08:21;10.00;99.90
10873;DHT22;34586;53.616;10.032;2022-12-20T16:10:49;10.00;99.90
10873;DHT22;34586;53.616;10.032;2022-12-20T16:13:23;10.10;99.90
10873;DHT22;34586;53.616;10.032;2022-12-20T16:15:51;10.10;99.90
10873;DHT22;34586;53.616;10.032;2022-12-20T16:18:17;10.20;99.90
10873;DHT22;34586;53.616;10.032;2022-12-20T16:20:43;10.10;99.90
10873;DHT22;34586;53.616;10.032;2022-12-20T16:23:18;10.20;99.90
10873;DHT22;34586;53.616;10.032;2022-12-20T16:25:45;10.20;99.90
10873;DHT22;34586;53.616;10.032;2022-12-20T16:28:11;10.20;99.90
10873;DHT22;34586;53.616;10.032;2022-12-20T16:30:36;10.30;99.90
10873;DHT22;34586;53.616;10.032;2022-12-20T16:33:02;10.20;99.90
10873;DHT22;34586;53.616;10.032;2022-12-20T16:35:34;10.20;99.90
10873;DHT22;34586;53.616;10.032;2022-12-20T16:38:04;10.20;99.90
10873;DHT22;34586;53.616;10.032;2022-12-20T16:40:31;10.30;99.90
10873;DHT22;34586;53.616;10.032;2022-12-20T16:42:58;10.40;99.90
10873;DHT22;34586;53.616;10.032;2022-12-20T16:45:27;10.40;99.90
10873;DHT22;34586;53.616;10.032;2022-12-20T16:47:53;10.30;99.90
10873;DHT22;34586;53.616;10.032;2022-12-20T16:50:20;10.30;99.90
10873;DHT22;34586;53.616;10.032;2022-12-20T16:52:47;10.30;99.90
10873;DHT22;34586;53.616;10.032;2022-12-20T16:55:19;10.30;99.90
10873;DHT22;34586;53.616;10.032;2022-12-20T16:57:45;10.30;99.90
10873;DHT22;34586;53.616;10.032;2022-12-20T17:00:22;10.30;99.90
10873;DHT22;34586;53.616;10.032;2022-12-20T17:02:49;10.30;99.90
10873;DHT22;34586;53.616;10.032;2022-12-20T17:05:32;10.30;99.90
10873;DHT22;34586;53.616;10.032;2022-12-20T17:07:58;10.30;99.90
10873;DHT22;34586;53.616;10.032;2022-12-20T17:10:24;10.30;99.90
10873;DHT22;34586;53.616;10.032;2022-12-20T17:12:50;10.30;99.90
10873;DHT22;34586;53.616;10.032;2022-12-20T17:17:47;10.30;99.90
10873;DHT22;34586;53.616;10.032;2022-12-20T17:20:14;10.30;99.90
10873;DHT22;34586;53.616;10.032;2022-12-20T17:22:40;10.20;99.90
10873;DHT22;34586;53.616;10.032;2022-12-20T17:25:33;10.20;99.90
10873;DHT22;34586;53.616;10.032;2022-12-20T17:27:59;10.30;99.90
10873;DHT22;34586;53.616;10.032;2022-12-20T17:30:25;10.30;99.90